34AR weather

Woodbridge Field
Marked Tree, Arkansas, United States

Public forecast

Using degrees Fahrenheit for public forecast. Weather courtesy of forecast.io.

Closest aviation weather report (METAR) to Woodbridge Field

Closest report is Jonesboro Municipal Airport, 19.7 nm (36.5 km) NW. Retrieved 2019/10/21 00:53 UTC (50 minutes ago):

KJBR 210053Z AUTO 11004KT 10SM BKN042 OVC050 22/16 A2979 RMK AO2 SLP084 T02170156

Closest aviation forecast (TAF) to Woodbridge Field

Closest forecast is Jonesboro Municipal Airport, 19.7 nm (36.5 km) NW. Retrieved 2019-10-21 00:30 UTC (1 hour ago):

TAF KJBR 202328Z 2100/2124 12006KT P6SM BKN050 FM210700 19012G20KT P6SM VCSH BKN050 OVC150 WS020/22045KT FM211100 19011G20KT 4SM TSRA BKN025CB OVC050 TEMPO 2112/2115 1SM TSRA FM211700 29012G22KT P6SM VCSH SCT020 OVC050 FM212200 25009KT P6SM FEW050